Time;durP1;ratioP1;P1;durP2;ratioP2;P2;SDS_P1;SDS_P2;PMS_P1;PMS_P2;Temp;Humidity;BMP_temperature;BMP_pressure;BME280_temperature;BME280_humidity;BME280_pressure;Samples;Min_cycle;Max_cycle;Signal;HPM_P1;HPM_P2
2023/08/06 00:01:44;;;;;;;;;;;;;;;;;;6304327;28;20351;-58
2023/08/06 00:04:45;;;;;;;;;;;;;;;;;;6306309;28;19931;-57
2023/08/06 00:07:46;;;;;;;;;;;;;;;;;;6302984;28;19931;-58
2023/08/06 00:10:47;;;;;;;;;;;;;;;;;;6306054;28;19928;-57
2023/08/06 00:13:47;;;;;;;;;;;;;;;;;;6305373;28;20331;-57
2023/08/06 00:16:48;;;;;;;;;;;;;;;;;;6305514;28;19924;-58
2023/08/06 00:19:48;;;;;;;;;;;;;;;;;;6307679;28;20432;-58
2023/08/06 00:22:49;;;;;;;;;;;;;;;;;;6304114;28;21525;-56
2023/08/06 00:25:49;;;;;;;;;;;;;;;;;;6306058;28;19942;-55
2023/08/06 00:28:50;;;;;;;;;;;;;;;;;;6298904;28;19924;-58
2023/08/06 00:31:50;;;;;;;;;;;;;;;;;;6305625;28;19927;-57
2023/08/06 00:34:51;;;;;;;;;;;;;;;;;;6304772;28;19946;-56
2023/08/06 00:37:51;;;;;;;;;;;;;;;;;;6302231;28;19928;-57
2023/08/06 00:40:53;;;;;;;;;;;;;;;;;;6308704;28;22022;-56
2023/08/06 00:43:53;;;;;;;;;;;;;;;;;;6303951;28;19928;-53
2023/08/06 00:46:54;;;;;;;;;;;;;;;;;;6305514;28;19928;-56
2023/08/06 00:49:54;;;;;;;;;;;;;;;;;;6302702;28;20021;-58
2023/08/06 00:52:55;;;;;;;;;;;;;;;;;;6310783;28;20450;-58
2023/08/06 00:55:56;;;;;;;;;;;;;;;;;;6306852;28;19927;-57
2023/08/06 00:58:57;;;;;;;;;;;;;;;;;;6299732;28;20375;-58
2023/08/06 01:01:58;;;;;;;;;;;;;;;;;;6307151;28;19928;-54
2023/08/06 01:04:58;;;;;;;;;;;;;;;;;;6305009;28;20875;-57
2023/08/06 01:08:18;;;;;;;;;;;;;;;;;;6302086;28;19985;-57
2023/08/06 01:11:31;;;;;;;;;;;;;;;;;;6304638;28;19928;-57
2023/08/06 01:14:32;;;;;;;;;;;;;;;;;;6308989;28;20434;-57
2023/08/06 01:17:34;;;;;;;;;;;;;;;;;;6307874;28;19959;-57
2023/08/06 01:20:35;;;;;;;;;;;;;;;;;;6304176;28;19928;-57
2023/08/06 01:23:36;;;;;;;;;;;;;;;;;;6304705;28;19955;-55
2023/08/06 01:26:39;;;;;;;;;;;;;;;;;;6304185;28;19927;-57
2023/08/06 01:29:48;;;;;;;;;;;;;;;;;;6306846;28;19924;-56
2023/08/06 01:32:50;;;;;;;;;;;;;;;;;;6299233;28;19989;-57
2023/08/06 01:35:51;;;;;;;;;;;;;;;;;;6293571;28;19966;-56
2023/08/06 01:38:55;;;;;;;;;;;;;;;;;;6305429;28;19935;-56
2023/08/06 01:41:55;;;;;;;;;;;;;;;;;;6294651;28;19926;-58
2023/08/06 01:44:55;;;;;;;;;;;;;;;;;;6297182;28;19920;-58
2023/08/06 01:47:56;;;;;;;;;;;;;;;;;;6293711;28;19920;-58
2023/08/06 01:50:57;;;;;;;;;;;;;;;;;;6293707;28;19920;-58
2023/08/06 01:53:57;;;;;;;;;;;;;;;;;;6293354;28;20090;-57
2023/08/06 01:56:58;;;;;;;;;;;;;;;;;;6298968;28;20286;-58
2023/08/06 01:59:59;;;;;;;;;;;;;;;;;;6295576;28;19923;-58
2023/08/06 02:02:59;;;;;;;;;;;;;;;;;;6298569;28;20295;-56
2023/08/06 02:06:00;;;;;;;;;;;;;;;;;;6296842;28;19958;-58
2023/08/06 02:09:00;;;;;;;;;;;;;;;;;;6294059;28;19927;-57
2023/08/06 02:12:01;;;;;;;;;;;;;;;;;;6296933;28;19930;-56
2023/08/06 02:15:01;;;;;;;;;;;;;;;;;;6297100;28;19924;-58
2023/08/06 02:18:02;;;;;;;;;;;;;;;;;;6296334;28;19928;-57
2023/08/06 02:21:02;;;;;;;;;;;;;;;;;;6299316;28;19924;-58
2023/08/06 02:24:03;;;;;;;;;;;;;;;;;;6301656;28;19924;-57
2023/08/06 02:27:03;;;;;;;;;;;;;;;;;;6304235;28;19935;-57
2023/08/06 02:30:05;;;;;;;;;;;;;;;;;;6302187;28;19963;-58
2023/08/06 02:33:05;;;;;;;;;;;;;;;;;;6305988;28;19924;-58
2023/08/06 02:36:06;;;;;;;;;;;;;;;;;;6303828;28;20094;-55
2023/08/06 02:39:06;;;;;;;;;;;;;;;;;;6301151;28;19921;-59
2023/08/06 02:42:07;;;;;;;;;;;;;;;;;;6302225;28;20291;-58
2023/08/06 02:45:08;;;;;;;;;;;;;;;;;;6303994;28;19958;-58
2023/08/06 02:48:09;;;;;;;;;;;;;;;;;;6300871;28;20381;-57
2023/08/06 02:51:09;;;;;;;;;;;;;;;;;;6302050;28;19932;-57
2023/08/06 02:54:10;;;;;;;;;;;;;;;;;;6304757;28;19920;-58
2023/08/06 02:57:10;;;;;;;;;;;;;;;;;;6307872;28;19973;-57
2023/08/06 03:00:11;;;;;;;;;;;;;;;;;;6301053;28;19983;-58
2023/08/06 03:03:12;;;;;;;;;;;;;;;;;;6302553;28;20429;-58
2023/08/06 03:06:12;;;;;;;;;;;;;;;;;;6300546;28;19928;-58
2023/08/06 03:09:13;;;;;;;;;;;;;;;;;;6299936;28;20038;-57
2023/08/06 03:12:13;;;;;;;;;;;;;;;;;;6301543;28;19927;-57
2023/08/06 03:15:14;;;;;;;;;;;;;;;;;;6302421;28;20218;-58
2023/08/06 03:18:15;;;;;;;;;;;;;;;;;;6303193;28;19928;-57
2023/08/06 03:21:15;;;;;;;;;;;;;;;;;;6304112;28;20375;-54
2023/08/06 03:24:16;;;;;;;;;;;;;;;;;;6304455;28;20616;-55
2023/08/06 03:27:16;;;;;;;;;;;;;;;;;;6301603;28;20291;-55
2023/08/06 03:30:16;;;;;;;;;;;;;;;;;;6300482;28;20621;-58
2023/08/06 03:33:17;;;;;;;;;;;;;;;;;;6298343;28;19921;-58
2023/08/06 03:36:17;;;;;;;;;;;;;;;;;;6298677;28;20343;-57
2023/08/06 03:39:18;;;;;;;;;;;;;;;;;;6297073;28;20377;-58
2023/08/06 03:42:18;;;;;;;;;;;;;;;;;;6297823;28;19926;-58
2023/08/06 03:45:19;;;;;;;;;;;;;;;;;;6297447;28;19920;-59
2023/08/06 03:48:19;;;;;;;;;;;;;;;;;;6297554;28;19920;-59
2023/08/06 03:51:20;;;;;;;;;;;;;;;;;;6296719;28;19921;-58
2023/08/06 03:54:21;;;;;;;;;;;;;;;;;;6298170;28;19969;-59
2023/08/06 03:57:21;;;;;;;;;;;;;;;;;;6298055;28;20291;-57
2023/08/06 04:00:22;;;;;;;;;;;;;;;;;;6297639;28;19969;-58
2023/08/06 04:03:22;;;;;;;;;;;;;;;;;;6297851;28;20645;-57
2023/08/06 04:06:22;;;;;;;;;;;;;;;;;;6296069;28;19925;-57
2023/08/06 04:09:23;;;;;;;;;;;;;;;;;;6298236;28;19928;-58
2023/08/06 04:12:24;;;;;;;;;;;;;;;;;;6297203;28;19970;-59
2023/08/06 04:15:24;;;;;;;;;;;;;;;;;;6311135;28;19930;-57
2023/08/06 04:18:25;;;;;;;;;;;;;;;;;;6304836;28;20543;-58
2023/08/06 04:21:25;;;;;;;;;;;;;;;;;;6297611;28;19924;-58
2023/08/06 04:24:26;;;;;;;;;;;;;;;;;;6298063;28;19924;-58
2023/08/06 04:27:26;;;;;;;;;;;;;;;;;;6296962;28;19924;-57
2023/08/06 04:30:27;;;;;;;;;;;;;;;;;;6297530;28;19928;-58
2023/08/06 04:33:27;;;;;;;;;;;;;;;;;;6293461;28;19925;-59
2023/08/06 04:36:28;;;;;;;;;;;;;;;;;;6295786;28;19928;-58
2023/08/06 04:39:28;;;;;;;;;;;;;;;;;;6295989;28;19927;-57
2023/08/06 04:42:29;;;;;;;;;;;;;;;;;;6294184;28;19985;-57
2023/08/06 04:45:29;;;;;;;;;;;;;;;;;;6296290;28;19920;-59
2023/08/06 04:48:30;;;;;;;;;;;;;;;;;;6294740;28;19930;-57
2023/08/06 04:51:30;;;;;;;;;;;;;;;;;;6296802;28;19927;-56
2023/08/06 04:54:31;;;;;;;;;;;;;;;;;;6296080;28;19931;-59
2023/08/06 04:57:31;;;;;;;;;;;;;;;;;;6295690;28;19935;-58
2023/08/06 05:00:33;;;;;;;;;;;;;;;;;;6296307;28;19925;-54
2023/08/06 05:03:33;;;;;;;;;;;;;;;;;;6296858;28;20410;-56
2023/08/06 05:06:34;;;;;;;;;;;;;;;;;;6296580;28;19924;-58
2023/08/06 05:09:34;;;;;;;;;;;;;;;;;;6306678;28;19928;-56
2023/08/06 05:12:35;;;;;;;;;;;;;;;;;;6309209;28;19943;-56
2023/08/06 05:15:35;;;;;;;;;;;;;;;;;;6296485;28;19927;-58
2023/08/06 05:18:37;;;;;;;;;;;;;;;;;;6297919;28;19996;-57
2023/08/06 05:21:38;;;;;;;;;;;;;;;;;;6308149;28;19919;-57
2023/08/06 05:24:39;;;;;;;;;;;;;;;;;;6293604;28;19925;-58
2023/08/06 05:27:39;;;;;;;;;;;;;;;;;;6293804;28;19924;-58
2023/08/06 05:30:40;;;;;;;;;;;;;;;;;;6295761;28;19963;-59
2023/08/06 05:33:41;;;;;;;;;;;;;;;;;;6294690;28;19924;-57
2023/08/06 05:36:41;;;;;;;;;;;;;;;;;;6294045;28;19920;-57
2023/08/06 05:39:42;;;;;;;;;;;;;;;;;;6295497;28;19920;-56
2023/08/06 05:42:42;;;;;;;;;;;;;;;;;;6295820;28;19974;-57
2023/08/06 05:45:48;;;;;;;;;;;;;;;;;;6293084;28;19927;-58
2023/08/06 05:48:50;;;;;;;;;;;;;;;;;;6293232;28;20432;-58
2023/08/06 05:51:53;;;;;;;;;;;;;;;;;;6296494;28;19920;-59
2023/08/06 05:54:54;;;;;;;;;;;;;;;;;;6294464;28;19924;-57
2023/08/06 05:57:55;;;;;;;;;;;;;;;;;;6293884;28;20873;-58
2023/08/06 06:00:56;;;;;;;;;;;;;;;;;;6294494;28;19924;-58
2023/08/06 06:03:56;;;;;;;;;;;;;;;;;;6294153;28;19942;-58
2023/08/06 06:06:57;;;;;;;;;;;;;;;;;;6293434;28;20002;-56
2023/08/06 06:09:58;;;;;;;;;;;;;;;;;;6293318;28;19925;-58
2023/08/06 06:12:59;;;;;;;;;;;;;;;;;;6296456;28;19924;-56
2023/08/06 06:15:59;;;;;;;;;;;;;;;;;;6294125;28;19924;-57
2023/08/06 06:19:00;;;;;;;;;;;;;;;;;;6297182;28;19924;-56
2023/08/06 06:22:00;;;;;;;;;;;;;;;;;;6296295;28;19971;-58
2023/08/06 06:25:01;;;;;;;;;;;;;;;;;;6293891;28;20005;-55
2023/08/06 06:28:01;;;;;;;;;;;;;;;;;;6296148;28;20286;-57
2023/08/06 06:31:03;;;;;;;;;;;;;;;;;;6295361;28;19928;-57
2023/08/06 06:34:03;;;;;;;;;;;;;;;;;;6294530;28;20030;-57
2023/08/06 06:37:04;;;;;;;;;;;;;;;;;;6293914;28;19928;-57
2023/08/06 06:40:05;;;;;;;;;;;;;;;;;;6292574;28;21807;-55
2023/08/06 06:43:06;;;;;;;;;;;;;;;;;;6292885;28;19973;-58
2023/08/06 06:46:06;;;;;;;;;;;;;;;;;;6293641;28;19924;-58
2023/08/06 06:49:07;;;;;;;;;;;;;;;;;;6292042;28;20363;-56
2023/08/06 06:52:07;;;;;;;;;;;;;;;;;;6294759;28;19923;-58
2023/08/06 06:55:08;;;;;;;;;;;;;;;;;;6293836;28;20646;-58
2023/08/06 06:58:08;;;;;;;;;;;;;;;;;;6289918;28;20477;-56
2023/08/06 07:01:10;;;;;;;;;;;;;;;;;;6293496;28;20414;-60
2023/08/06 07:04:10;;;;;;;;;;;;;;;;;;6288955;28;19952;-60
2023/08/06 07:07:10;;;;;;;;;;;;;;;;;;6307255;28;19920;-60
2023/08/06 07:10:11;;;;;;;;;;;;;;;;;;6316432;28;19931;-60
2023/08/06 07:13:12;;;;;;;;;;;;;;;;;;6320370;28;19930;-61
2023/08/06 07:16:12;;;;;;;;;;;;;;;;;;6320315;28;19924;-61
2023/08/06 07:19:13;;;;;;;;;;;;;;;;;;6318059;28;20278;-59
2023/08/06 07:22:13;;;;;;;;;;;;;;;;;;6305452;28;19924;-59
2023/08/06 07:25:14;;;;;;;;;;;;;;;;;;6294268;28;19935;-59
2023/08/06 07:28:15;;;;;;;;;;;;;;;;;;6294146;28;19928;-59
2023/08/06 07:31:15;;;;;;;;;;;;;;;;;;6308165;28;20038;-59
2023/08/06 07:34:16;;;;;;;;;;;;;;;;;;6310741;28;20390;-60
2023/08/06 07:37:16;;;;;;;;;;;;;;;;;;6315408;28;19920;-60
2023/08/06 07:40:17;;;;;;;;;;;;;;;;;;6318474;28;19924;-60
2023/08/06 07:43:17;;;;;;;;;;;;;;;;;;6319712;28;20057;-59
2023/08/06 07:46:18;;;;;;;;;;;;;;;;;;6319681;28;20319;-60
2023/08/06 07:49:19;;;;;;;;;;;;;;;;;;6319167;28;19924;-59
2023/08/06 07:52:19;;;;;;;;;;;;;;;;;;6319105;28;20291;-59
2023/08/06 07:55:20;;;;;;;;;;;;;;;;;;6305916;28;19924;-61
2023/08/06 07:58:20;;;;;;;;;;;;;;;;;;6293199;28;20439;-60
2023/08/06 08:01:21;;;;;;;;;;;;;;;;;;6293713;28;19954;-60
2023/08/06 08:04:21;;;;;;;;;;;;;;;;;;6294031;28;19939;-59
2023/08/06 08:07:22;;;;;;;;;;;;;;;;;;6317939;28;19920;-56
2023/08/06 08:10:22;;;;;;;;;;;;;;;;;;6318686;28;19920;-60
2023/08/06 08:13:23;;;;;;;;;;;;;;;;;;6319341;28;19920;-58
2023/08/06 08:16:23;;;;;;;;;;;;;;;;;;6318974;28;19920;-60
2023/08/06 08:19:24;;;;;;;;;;;;;;;;;;6317714;28;19920;-57
2023/08/06 08:22:24;;;;;;;;;;;;;;;;;;6318894;28;19922;-60
2023/08/06 08:25:25;;;;;;;;;;;;;;;;;;6318207;28;20412;-58
2023/08/06 08:28:25;;;;;;;;;;;;;;;;;;6318321;28;20325;-60
2023/08/06 08:31:26;;;;;;;;;;;;;;;;;;6317804;28;19924;-59
2023/08/06 08:34:26;;;;;;;;;;;;;;;;;;6318114;28;20048;-60
2023/08/06 08:37:28;;;;;;;;;;;;;;;;;;6318178;28;19978;-61
2023/08/06 08:40:32;;;;;;;;;;;;;;;;;;6317614;28;20435;-61
2023/08/06 08:43:33;;;;;;;;;;;;;;;;;;6299473;28;20356;-60
2023/08/06 08:46:35;;;;;;;;;;;;;;;;;;6292796;28;19924;-60
2023/08/06 08:49:35;;;;;;;;;;;;;;;;;;6292211;28;19920;-60
2023/08/06 08:52:37;;;;;;;;;;;;;;;;;;6293179;28;20275;-60
2023/08/06 08:55:39;;;;;;;;;;;;;;;;;;6292343;28;19920;-58
2023/08/06 08:58:39;;;;;;;;;;;;;;;;;;6292197;28;20299;-60
2023/08/06 09:01:42;;;;;;;;;;;;;;;;;;6292015;28;19930;-60
2023/08/06 09:04:43;;;;;;;;;;;;;;;;;;6292722;28;19943;-59
2023/08/06 09:07:46;;;;;;;;;;;;;;;;;;6291994;28;20282;-59
2023/08/06 09:10:48;;;;;;;;;;;;;;;;;;6304905;28;19924;-59
2023/08/06 09:13:49;;;;;;;;;;;;;;;;;;6293172;28;19933;-59
2023/08/06 09:16:49;;;;;;;;;;;;;;;;;;6291652;28;19932;-60
2023/08/06 09:19:50;;;;;;;;;;;;;;;;;;6291578;28;19929;-60
2023/08/06 09:22:52;;;;;;;;;;;;;;;;;;6300061;28;19923;-59
2023/08/06 09:25:53;;;;;;;;;;;;;;;;;;6317379;28;19927;-60
2023/08/06 09:28:53;;;;;;;;;;;;;;;;;;6316809;28;20294;-59
2023/08/06 09:31:54;;;;;;;;;;;;;;;;;;6315731;28;19924;-60
2023/08/06 09:34:57;;;;;;;;;;;;;;;;;;6317025;28;20367;-59
2023/08/06 09:38:08;;;;;;;;;;;;;;;;;;6315068;28;20290;-58
2023/08/06 09:41:08;;;;;;;;;;;;;;;;;;6296200;28;19926;-60
2023/08/06 09:44:19;;;;;;;;;;;;;;;;;;6291762;28;19920;-59
2023/08/06 09:47:22;;;;;;;;;;;;;;;;;;6306307;28;19924;-61
2023/08/06 09:50:27;;;;;;;;;;;;;;;;;;6314932;28;20275;-61
2023/08/06 09:53:27;;;;;;;;;;;;;;;;;;6316201;28;19947;-60
2023/08/06 09:56:28;;;;;;;;;;;;;;;;;;6315330;28;19919;-60
2023/08/06 09:59:29;;;;;;;;;;;;;;;;;;6316330;28;20363;-60
2023/08/06 10:02:30;;;;;;;;;;;;;;;;;;6315895;28;19920;-59
2023/08/06 10:05:31;;;;;;;;;;;;;;;;;;6315299;28;19920;-60
2023/08/06 10:08:32;;;;;;;;;;;;;;;;;;6315992;28;19924;-62
2023/08/06 10:11:33;;;;;;;;;;;;;;;;;;6315696;28;19924;-61
2023/08/06 10:14:35;;;;;;;;;;;;;;;;;;6312808;28;20347;-59
2023/08/06 10:17:36;;;;;;;;;;;;;;;;;;6296884;28;19940;-61
2023/08/06 10:20:37;;;;;;;;;;;;;;;;;;6290868;28;19942;-61
2023/08/06 10:23:40;;;;;;;;;;;;;;;;;;6290977;28;19920;-57
2023/08/06 10:26:40;;;;;;;;;;;;;;;;;;6291414;28;19925;-60
2023/08/06 10:29:41;;;;;;;;;;;;;;;;;;6296110;28;19924;-60
2023/08/06 10:32:52;;;;;;;;;;;;;;;;;;6314579;28;19931;-61
2023/08/06 10:36:00;;;;;;;;;;;;;;;;;;6304105;28;19928;-59
2023/08/06 10:39:02;;;;;;;;;;;;;;;;;;6294480;28;19920;-60
2023/08/06 10:42:02;;;;;;;;;;;;;;;;;;6295660;28;20661;-60
2023/08/06 10:45:16;;;;;;;;;;;;;;;;;;6298450;28;19980;-60
2023/08/06 10:48:28;;;;;;;;;;;;;;;;;;6314459;28;19951;-59
2023/08/06 10:51:29;;;;;;;;;;;;;;;;;;6312474;28;19924;-61
2023/08/06 10:54:29;;;;;;;;;;;;;;;;;;6300986;28;20252;-59
2023/08/06 10:57:30;;;;;;;;;;;;;;;;;;6301242;28;19959;-59
2023/08/06 11:00:30;;;;;;;;;;;;;;;;;;6298562;28;19957;-59
2023/08/06 11:03:31;;;;;;;;;;;;;;;;;;6300237;28;19920;-60
2023/08/06 11:06:32;;;;;;;;;;;;;;;;;;6298389;28;19928;-60
2023/08/06 11:09:32;;;;;;;;;;;;;;;;;;6299961;28;20051;-60
2023/08/06 11:12:33;;;;;;;;;;;;;;;;;;6298603;28;19977;-60
2023/08/06 11:15:33;;;;;;;;;;;;;;;;;;6300361;28;19923;-60
2023/08/06 11:18:34;;;;;;;;;;;;;;;;;;6297829;28;20286;-60
2023/08/06 11:21:35;;;;;;;;;;;;;;;;;;6296077;28;19931;-61
2023/08/06 11:24:37;;;;;;;;;;;;;;;;;;6298923;28;19981;-61
2023/08/06 11:27:37;;;;;;;;;;;;;;;;;;6300351;28;19930;-60
2023/08/06 11:30:38;;;;;;;;;;;;;;;;;;6300260;28;19920;-61
2023/08/06 11:33:40;;;;;;;;;;;;;;;;;;6299733;28;19920;-60
2023/08/06 11:36:41;;;;;;;;;;;;;;;;;;6299148;28;19959;-61
2023/08/06 11:39:45;;;;;;;;;;;;;;;;;;6299261;28;20443;-60
2023/08/06 11:42:46;;;;;;;;;;;;;;;;;;6296816;28;19920;-62
2023/08/06 11:45:47;;;;;;;;;;;;;;;;;;6295104;28;20458;-61
2023/08/06 11:48:51;;;;;;;;;;;;;;;;;;6296749;28;19935;-61
2023/08/06 11:51:51;;;;;;;;;;;;;;;;;;6298401;28;20020;-61
2023/08/06 11:55:10;;;;;;;;;;;;;;;;;;6299474;28;19985;-60
2023/08/06 11:58:14;;;;;;;;;;;;;;;;;;6294691;28;19934;-61
2023/08/06 12:01:15;;;;;;;;;;;;;;;;;;6299990;28;20438;-61
2023/08/06 12:04:15;;;;;;;;;;;;;;;;;;6298157;28;19927;-61
2023/08/06 12:07:16;;;;;;;;;;;;;;;;;;6298034;28;19920;-61
2023/08/06 12:10:17;;;;;;;;;;;;;;;;;;6294488;28;19972;-61
2023/08/06 12:13:17;;;;;;;;;;;;;;;;;;6296361;28;20319;-61
2023/08/06 12:16:18;;;;;;;;;;;;;;;;;;6298089;28;19924;-60
2023/08/06 12:19:19;;;;;;;;;;;;;;;;;;6299214;28;20385;-61
2023/08/06 12:22:19;;;;;;;;;;;;;;;;;;6299917;28;19924;-61
2023/08/06 12:25:20;;;;;;;;;;;;;;;;;;6297655;28;19927;-60
2023/08/06 12:28:21;;;;;;;;;;;;;;;;;;6301708;28;20398;-61
2023/08/06 12:31:21;;;;;;;;;;;;;;;;;;6299248;28;19924;-60
2023/08/06 12:34:22;;;;;;;;;;;;;;;;;;6296543;28;19986;-61
2023/08/06 12:37:24;;;;;;;;;;;;;;;;;;6298585;28;19935;-61
2023/08/06 12:40:25;;;;;;;;;;;;;;;;;;6300172;28;20015;-61
2023/08/06 12:43:25;;;;;;;;;;;;;;;;;;6298084;28;19924;-61
2023/08/06 12:46:26;;;;;;;;;;;;;;;;;;6298351;28;19978;-61
2023/08/06 12:49:26;;;;;;;;;;;;;;;;;;6297721;28;19919;-60
2023/08/06 12:52:27;;;;;;;;;;;;;;;;;;6295937;28;21359;-60
2023/08/06 12:55:27;;;;;;;;;;;;;;;;;;6297967;28;19924;-60
2023/08/06 12:58:28;;;;;;;;;;;;;;;;;;6287201;28;20715;-60
2023/08/06 13:01:28;;;;;;;;;;;;;;;;;;6297265;28;19924;-60
2023/08/06 13:04:30;;;;;;;;;;;;;;;;;;6297132;28;19962;-60
2023/08/06 13:07:30;;;;;;;;;;;;;;;;;;6298884;28;19965;-60
2023/08/06 13:10:31;;;;;;;;;;;;;;;;;;6296777;28;20356;-61
2023/08/06 13:13:31;;;;;;;;;;;;;;;;;;6295455;28;20294;-61
2023/08/06 13:16:35;;;;;;;;;;;;;;;;;;6296514;28;19943;-61
2023/08/06 13:19:36;;;;;;;;;;;;;;;;;;6297465;28;19965;-60
2023/08/06 13:22:37;;;;;;;;;;;;;;;;;;6298508;28;19921;-62
2023/08/06 13:25:38;;;;;;;;;;;;;;;;;;6297130;28;19935;-62
2023/08/06 13:28:39;;;;;;;;;;;;;;;;;;6298361;28;19926;-61
2023/08/06 13:31:39;;;;;;;;;;;;;;;;;;6297931;28;19920;-60
2023/08/06 13:34:40;;;;;;;;;;;;;;;;;;6295791;28;19924;-59
2023/08/06 13:37:40;;;;;;;;;;;;;;;;;;6296726;28;19921;-60
2023/08/06 13:40:42;;;;;;;;;;;;;;;;;;6294605;28;20390;-60
2023/08/06 13:43:43;;;;;;;;;;;;;;;;;;6302703;28;20001;-60
2023/08/06 13:46:44;;;;;;;;;;;;;;;;;;6296891;28;19928;-60
2023/08/06 13:49:45;;;;;;;;;;;;;;;;;;6298323;28;20405;-61
2023/08/06 13:52:45;;;;;;;;;;;;;;;;;;6296540;28;19925;-60
2023/08/06 13:55:46;;;;;;;;;;;;;;;;;;6295852;28;19926;-60
2023/08/06 13:58:46;;;;;;;;;;;;;;;;;;6297226;28;19928;-61
2023/08/06 14:01:47;;;;;;;;;;;;;;;;;;6295881;28;19920;-60
2023/08/06 14:04:47;;;;;;;;;;;;;;;;;;6310701;28;19972;-60
2023/08/06 14:07:48;;;;;;;;;;;;;;;;;;6299274;28;20744;-61
2023/08/06 14:10:49;;;;;;;;;;;;;;;;;;6297056;28;19924;-61
2023/08/06 14:13:49;;;;;;;;;;;;;;;;;;6291377;28;19923;-59
2023/08/06 14:16:50;;;;;;;;;;;;;;;;;;6304189;28;19949;-61
2023/08/06 14:19:50;;;;;;;;;;;;;;;;;;6299964;28;20570;-61
2023/08/06 14:22:51;;;;;;;;;;;;;;;;;;6303297;28;20387;-60
2023/08/06 14:25:51;;;;;;;;;;;;;;;;;;6303598;28;19989;-56
2023/08/06 14:28:54;;;;;;;;;;;;;;;;;;6308863;28;19930;-58
2023/08/06 14:31:54;;;;;;;;;;;;;;;;;;6302972;28;20424;-61
2023/08/06 14:34:55;;;;;;;;;;;;;;;;;;6303279;28;19924;-60
2023/08/06 14:37:55;;;;;;;;;;;;;;;;;;6306552;28;19935;-59
2023/08/06 14:40:57;;;;;;;;;;;;;;;;;;6303844;28;19928;-61
2023/08/06 14:43:57;;;;;;;;;;;;;;;;;;6301580;28;19950;-62
2023/08/06 14:46:58;;;;;;;;;;;;;;;;;;6308210;28;20381;-59
2023/08/06 14:49:58;;;;;;;;;;;;;;;;;;6310304;28;19928;-60
2023/08/06 14:53:02;;;;;;;;;;;;;;;;;;6315281;28;19928;-57
2023/08/06 14:56:02;;;;;;;;;;;;;;;;;;6314077;28;19955;-60
2023/08/06 14:59:03;;;;;;;;;;;;;;;;;;6313465;28;19934;-60
2023/08/06 15:02:03;;;;;;;;;;;;;;;;;;6316910;28;19927;-59
2023/08/06 15:05:04;;;;;;;;;;;;;;;;;;6313064;28;19928;-60
2023/08/06 15:08:05;;;;;;;;;;;;;;;;;;6315604;28;20279;-60
2023/08/06 15:11:06;;;;;;;;;;;;;;;;;;6312213;28;19930;-60
2023/08/06 15:14:07;;;;;;;;;;;;;;;;;;6314208;28;19927;-60
2023/08/06 15:17:07;;;;;;;;;;;;;;;;;;6313155;28;20790;-61
2023/08/06 15:20:08;;;;;;;;;;;;;;;;;;6309071;28;19931;-61
2023/08/06 15:23:08;;;;;;;;;;;;;;;;;;6306994;28;20009;-60
2023/08/06 15:26:09;;;;;;;;;;;;;;;;;;6312103;28;19924;-59
2023/08/06 15:29:10;;;;;;;;;;;;;;;;;;6315348;28;19932;-59
2023/08/06 15:32:10;;;;;;;;;;;;;;;;;;6319681;28;19927;-60
2023/08/06 15:35:11;;;;;;;;;;;;;;;;;;6318029;28;19928;-60
2023/08/06 15:38:12;;;;;;;;;;;;;;;;;;6315302;28;19935;-60
2023/08/06 15:41:13;;;;;;;;;;;;;;;;;;6316338;28;20015;-60
2023/08/06 15:44:13;;;;;;;;;;;;;;;;;;6321155;28;19928;-60
2023/08/06 15:47:14;;;;;;;;;;;;;;;;;;6316888;28;19964;-58
2023/08/06 15:50:14;;;;;;;;;;;;;;;;;;6314369;28;19928;-60
2023/08/06 15:53:15;;;;;;;;;;;;;;;;;;6312014;28;20378;-59
2023/08/06 15:56:15;;;;;;;;;;;;;;;;;;6315488;28;19931;-60
2023/08/06 15:59:21;;;;;;;;;;;;;;;;;;6303183;28;20285;-59
2023/08/06 16:02:24;;;;;;;;;;;;;;;;;;6302060;28;19938;-59
2023/08/06 16:05:24;;;;;;;;;;;;;;;;;;6297726;28;19927;-59
2023/08/06 16:08:25;;;;;;;;;;;;;;;;;;6301450;28;20398;-60
2023/08/06 16:11:25;;;;;;;;;;;;;;;;;;6295163;28;19943;-56
2023/08/06 16:14:26;;;;;;;;;;;;;;;;;;6300434;28;20436;-59
2023/08/06 16:17:27;;;;;;;;;;;;;;;;;;6294219;28;20294;-60
2023/08/06 16:20:28;;;;;;;;;;;;;;;;;;6302113;28;20279;-59
2023/08/06 16:23:28;;;;;;;;;;;;;;;;;;6293050;28;19924;-60
2023/08/06 16:26:30;;;;;;;;;;;;;;;;;;6300666;28;19923;-55
2023/08/06 16:29:31;;;;;;;;;;;;;;;;;;6302775;28;19927;-55
2023/08/06 16:32:31;;;;;;;;;;;;;;;;;;6300102;28;20350;-57
2023/08/06 16:35:32;;;;;;;;;;;;;;;;;;6298360;28;19932;-55
2023/08/06 16:38:32;;;;;;;;;;;;;;;;;;6300027;28;19928;-58
2023/08/06 16:41:33;;;;;;;;;;;;;;;;;;6304064;28;19924;-60
2023/08/06 16:44:34;;;;;;;;;;;;;;;;;;6298378;28;19935;-60
2023/08/06 16:47:34;;;;;;;;;;;;;;;;;;6301757;28;19959;-59
2023/08/06 16:50:36;;;;;;;;;;;;;;;;;;6303037;28;19928;-59
2023/08/06 16:53:37;;;;;;;;;;;;;;;;;;6299383;28;19928;-55
2023/08/06 16:56:37;;;;;;;;;;;;;;;;;;6298409;28;19947;-59
2023/08/06 16:59:38;;;;;;;;;;;;;;;;;;6298162;28;19928;-58
2023/08/06 17:02:38;;;;;;;;;;;;;;;;;;6292168;28;20480;-57
2023/08/06 17:05:39;;;;;;;;;;;;;;;;;;6300479;28;20363;-57
2023/08/06 17:08:39;;;;;;;;;;;;;;;;;;6301410;28;19928;-57
2023/08/06 17:11:40;;;;;;;;;;;;;;;;;;6301855;28;20333;-58
2023/08/06 17:14:41;;;;;;;;;;;;;;;;;;6299290;28;20295;-58
2023/08/06 17:17:41;;;;;;;;;;;;;;;;;;6302966;28;19928;-60
2023/08/06 17:20:42;;;;;;;;;;;;;;;;;;6302050;28;20349;-61
2023/08/06 17:23:42;;;;;;;;;;;;;;;;;;6298232;28;20019;-59
2023/08/06 17:26:43;;;;;;;;;;;;;;;;;;6294103;28;19940;-58
2023/08/06 17:29:43;;;;;;;;;;;;;;;;;;6300466;28;19931;-61
2023/08/06 17:32:44;;;;;;;;;;;;;;;;;;6280470;28;20290;-60
2023/08/06 17:35:45;;;;;;;;;;;;;;;;;;6280669;28;19931;-56
2023/08/06 17:38:45;;;;;;;;;;;;;;;;;;6299874;28;19936;-59
2023/08/06 17:41:46;;;;;;;;;;;;;;;;;;6300578;28;20311;-58
2023/08/06 17:44:47;;;;;;;;;;;;;;;;;;6298181;28;20576;-58
2023/08/06 17:47:48;;;;;;;;;;;;;;;;;;6299952;28;19956;-59
2023/08/06 17:50:48;;;;;;;;;;;;;;;;;;6300646;28;19921;-59
2023/08/06 17:53:49;;;;;;;;;;;;;;;;;;6296190;28;20367;-56
2023/08/06 17:56:49;;;;;;;;;;;;;;;;;;6302056;28;19975;-59
2023/08/06 17:59:50;;;;;;;;;;;;;;;;;;6302624;28;19973;-60
2023/08/06 18:02:50;;;;;;;;;;;;;;;;;;6297167;28;19988;-61
2023/08/06 18:05:55;;;;;;;;;;;;;;;;;;6303208;28;19924;-60
2023/08/06 18:08:56;;;;;;;;;;;;;;;;;;6301083;28;19960;-59
2023/08/06 18:11:56;;;;;;;;;;;;;;;;;;6304469;28;20400;-60
2023/08/06 18:14:58;;;;;;;;;;;;;;;;;;6274797;28;20273;-60
2023/08/06 18:17:58;;;;;;;;;;;;;;;;;;6299097;28;20275;-60
2023/08/06 18:20:59;;;;;;;;;;;;;;;;;;6301091;28;19920;-58
2023/08/06 18:23:59;;;;;;;;;;;;;;;;;;6297637;28;19924;-59
2023/08/06 18:27:00;;;;;;;;;;;;;;;;;;6301472;28;19931;-59
2023/08/06 18:30:00;;;;;;;;;;;;;;;;;;6298893;28;19930;-59
2023/08/06 18:33:02;;;;;;;;;;;;;;;;;;6297001;28;20404;-59
2023/08/06 18:36:03;;;;;;;;;;;;;;;;;;6301073;28;20010;-59
2023/08/06 18:39:04;;;;;;;;;;;;;;;;;;6280564;28;20361;-60
2023/08/06 18:42:05;;;;;;;;;;;;;;;;;;6296252;28;20323;-59
2023/08/06 18:45:05;;;;;;;;;;;;;;;;;;6300759;28;19927;-58
2023/08/06 18:48:06;;;;;;;;;;;;;;;;;;6299952;28;19950;-58
2023/08/06 18:51:06;;;;;;;;;;;;;;;;;;6303481;28;19924;-59
2023/08/06 18:54:07;;;;;;;;;;;;;;;;;;6312132;28;21253;-60
2023/08/06 18:57:08;;;;;;;;;;;;;;;;;;6315869;28;19928;-60
2023/08/06 19:00:08;;;;;;;;;;;;;;;;;;6316419;28;19963;-57
2023/08/06 19:03:09;;;;;;;;;;;;;;;;;;6317970;28;20361;-60
2023/08/06 19:06:10;;;;;;;;;;;;;;;;;;6320946;28;19923;-57
2023/08/06 19:09:10;;;;;;;;;;;;;;;;;;6308399;28;19935;-58
2023/08/06 19:12:11;;;;;;;;;;;;;;;;;;6307476;28;20826;-57
2023/08/06 19:15:11;;;;;;;;;;;;;;;;;;6305290;28;19935;-59
2023/08/06 19:18:12;;;;;;;;;;;;;;;;;;6308294;28;20294;-58
2023/08/06 19:21:12;;;;;;;;;;;;;;;;;;6310470;28;19934;-60
2023/08/06 19:24:13;;;;;;;;;;;;;;;;;;6306564;28;19928;-60
2023/08/06 19:27:15;;;;;;;;;;;;;;;;;;6310228;28;20837;-60
2023/08/06 19:30:16;;;;;;;;;;;;;;;;;;6309267;28;19928;-59
2023/08/06 19:33:17;;;;;;;;;;;;;;;;;;6306301;28;19931;-59
2023/08/06 19:36:18;;;;;;;;;;;;;;;;;;6305602;28;21149;-60
2023/08/06 19:39:18;;;;;;;;;;;;;;;;;;6309464;28;19928;-57
2023/08/06 19:42:19;;;;;;;;;;;;;;;;;;6312312;28;19947;-59
2023/08/06 19:45:19;;;;;;;;;;;;;;;;;;6316024;28;19924;-59
2023/08/06 19:48:20;;;;;;;;;;;;;;;;;;6317955;28;19963;-59
2023/08/06 19:51:25;;;;;;;;;;;;;;;;;;6315228;28;20379;-55
2023/08/06 19:54:25;;;;;;;;;;;;;;;;;;6317072;28;19919;-59
2023/08/06 19:57:26;;;;;;;;;;;;;;;;;;6315916;28;19931;-58
2023/08/06 20:00:27;;;;;;;;;;;;;;;;;;6315575;28;19928;-59
2023/08/06 20:03:28;;;;;;;;;;;;;;;;;;6309604;28;20429;-59
2023/08/06 20:06:29;;;;;;;;;;;;;;;;;;6308263;28;20858;-60
2023/08/06 20:09:30;;;;;;;;;;;;;;;;;;6311263;28;19939;-59
2023/08/06 20:12:31;;;;;;;;;;;;;;;;;;6308128;28;19920;-60
2023/08/06 20:15:31;;;;;;;;;;;;;;;;;;6307066;28;20377;-59
2023/08/06 20:18:32;;;;;;;;;;;;;;;;;;6308192;28;19965;-59
2023/08/06 20:21:32;;;;;;;;;;;;;;;;;;6309110;28;20338;-59
2023/08/06 20:24:32;;;;;;;;;;;;;;;;;;6305324;28;19928;-59
2023/08/06 20:27:33;;;;;;;;;;;;;;;;;;6309593;28;19928;-58
2023/08/06 20:30:33;;;;;;;;;;;;;;;;;;6306358;28;19923;-59
2023/08/06 20:33:35;;;;;;;;;;;;;;;;;;6305676;28;19920;-60
2023/08/06 20:36:36;;;;;;;;;;;;;;;;;;6309493;28;20302;-59